sensor_id;sensor_type;location;lat;lon;timestamp;P1;durP1;ratioP1;P2;durP2;ratioP2
4055;SDS011;2043;52.184;8.690;2023-03-01T00:01:15;33.50;;;15.70;;
4055;SDS011;2043;52.184;8.690;2023-03-01T00:03:47;33.73;;;17.50;;
4055;SDS011;2043;52.184;8.690;2023-03-01T00:06:14;31.77;;;15.37;;
4055;SDS011;2043;52.184;8.690;2023-03-01T00:08:42;31.30;;;15.40;;
4055;SDS011;2043;52.184;8.690;2023-03-01T00:13:38;33.90;;;16.00;;
4055;SDS011;2043;52.184;8.690;2023-03-01T00:16:06;35.30;;;16.60;;
4055;SDS011;2043;52.184;8.690;2023-03-01T00:18:35;38.43;;;17.27;;
4055;SDS011;2043;52.184;8.690;2023-03-01T00:21:02;38.60;;;17.60;;
4055;SDS011;2043;52.184;8.690;2023-03-01T00:23:29;33.10;;;16.70;;
4055;SDS011;2043;52.184;8.690;2023-03-01T00:25:56;39.70;;;16.87;;
4055;SDS011;2043;52.184;8.690;2023-03-01T00:28:23;68.00;;;16.67;;
4055;SDS011;2043;52.184;8.690;2023-03-01T00:30:50;32.27;;;16.43;;
4055;SDS011;2043;52.184;8.690;2023-03-01T00:33:17;37.50;;;17.97;;
4055;SDS011;2043;52.184;8.690;2023-03-01T00:35:44;32.03;;;16.17;;
4055;SDS011;2043;52.184;8.690;2023-03-01T00:38:11;34.90;;;16.60;;
4055;SDS011;2043;52.184;8.690;2023-03-01T00:40:38;37.07;;;16.37;;
4055;SDS011;2043;52.184;8.690;2023-03-01T00:43:05;43.40;;;18.03;;
4055;SDS011;2043;52.184;8.690;2023-03-01T00:45:32;35.10;;;16.13;;
4055;SDS011;2043;52.184;8.690;2023-03-01T00:47:59;39.17;;;17.10;;
4055;SDS011;2043;52.184;8.690;2023-03-01T00:50:26;31.53;;;15.00;;
4055;SDS011;2043;52.184;8.690;2023-03-01T00:52:53;29.97;;;14.27;;
4055;SDS011;2043;52.184;8.690;2023-03-01T00:55:21;35.73;;;14.80;;
4055;SDS011;2043;52.184;8.690;2023-03-01T00:57:48;34.07;;;15.30;;
4055;SDS011;2043;52.184;8.690;2023-03-01T01:00:16;30.33;;;14.93;;
4055;SDS011;2043;52.184;8.690;2023-03-01T01:02:43;40.63;;;16.13;;
4055;SDS011;2043;52.184;8.690;2023-03-01T01:05:11;29.23;;;15.37;;
4055;SDS011;2043;52.184;8.690;2023-03-01T01:07:38;31.63;;;13.93;;
4055;SDS011;2043;52.184;8.690;2023-03-01T01:10:05;28.00;;;14.43;;
4055;SDS011;2043;52.184;8.690;2023-03-01T01:12:32;34.53;;;15.50;;
4055;SDS011;2043;52.184;8.690;2023-03-01T01:15:00;32.70;;;15.00;;
4055;SDS011;2043;52.184;8.690;2023-03-01T01:17:27;34.50;;;16.20;;
4055;SDS011;2043;52.184;8.690;2023-03-01T01:19:54;30.93;;;14.77;;
4055;SDS011;2043;52.184;8.690;2023-03-01T01:22:21;34.07;;;15.13;;
4055;SDS011;2043;52.184;8.690;2023-03-01T01:24:48;34.87;;;13.03;;
4055;SDS011;2043;52.184;8.690;2023-03-01T01:27:15;32.23;;;14.30;;
4055;SDS011;2043;52.184;8.690;2023-03-01T01:29:42;35.63;;;14.63;;
4055;SDS011;2043;52.184;8.690;2023-03-01T01:32:10;28.73;;;13.70;;
4055;SDS011;2043;52.184;8.690;2023-03-01T01:34:37;30.07;;;13.93;;
4055;SDS011;2043;52.184;8.690;2023-03-01T01:37:04;30.73;;;14.23;;
4055;SDS011;2043;52.184;8.690;2023-03-01T01:39:34;28.20;;;14.00;;
4055;SDS011;2043;52.184;8.690;2023-03-01T01:42:01;30.80;;;15.30;;
4055;SDS011;2043;52.184;8.690;2023-03-01T01:44:28;30.90;;;15.00;;
4055;SDS011;2043;52.184;8.690;2023-03-01T01:51:58;33.60;;;14.33;;
4055;SDS011;2043;52.184;8.690;2023-03-01T01:54:51;31.53;;;13.57;;
4055;SDS011;2043;52.184;8.690;2023-03-01T01:57:28;32.03;;;14.47;;
4055;SDS011;2043;52.184;8.690;2023-03-01T02:00:00;36.30;;;14.87;;
4055;SDS011;2043;52.184;8.690;2023-03-01T02:02:33;47.43;;;16.70;;
4055;SDS011;2043;52.184;8.690;2023-03-01T02:05:25;31.73;;;15.13;;
4055;SDS011;2043;52.184;8.690;2023-03-01T02:08:03;41.17;;;15.97;;
4055;SDS011;2043;52.184;8.690;2023-03-01T02:10:31;28.47;;;15.53;;
4055;SDS011;2043;52.184;8.690;2023-03-01T02:13:01;34.73;;;15.60;;
4055;SDS011;2043;52.184;8.690;2023-03-01T02:15:31;31.13;;;15.13;;
4055;SDS011;2043;52.184;8.690;2023-03-01T02:18:01;33.80;;;15.00;;
4055;SDS011;2043;52.184;8.690;2023-03-01T02:20:33;30.10;;;14.70;;
4055;SDS011;2043;52.184;8.690;2023-03-01T02:23:00;29.47;;;14.10;;
4055;SDS011;2043;52.184;8.690;2023-03-01T02:30:39;32.50;;;15.00;;
4055;SDS011;2043;52.184;8.690;2023-03-01T02:33:28;34.73;;;14.80;;
4055;SDS011;2043;52.184;8.690;2023-03-01T02:35:59;29.93;;;14.37;;
4055;SDS011;2043;52.184;8.690;2023-03-01T02:38:27;29.47;;;14.70;;
4055;SDS011;2043;52.184;8.690;2023-03-01T02:40:54;31.03;;;14.30;;
4055;SDS011;2043;52.184;8.690;2023-03-01T02:43:24;28.00;;;14.70;;
4055;SDS011;2043;52.184;8.690;2023-03-01T02:45:57;31.63;;;13.70;;
4055;SDS011;2043;52.184;8.690;2023-03-01T02:48:39;41.07;;;15.63;;
4055;SDS011;2043;52.184;8.690;2023-03-01T02:51:13;30.70;;;13.63;;
4055;SDS011;2043;52.184;8.690;2023-03-01T02:56:32;33.17;;;15.17;;
4055;SDS011;2043;52.184;8.690;2023-03-01T02:59:00;31.60;;;14.27;;
4055;SDS011;2043;52.184;8.690;2023-03-01T03:01:27;31.03;;;13.67;;
4055;SDS011;2043;52.184;8.690;2023-03-01T03:04:08;28.80;;;13.77;;
4055;SDS011;2043;52.184;8.690;2023-03-01T03:06:36;38.60;;;15.33;;
4055;SDS011;2043;52.184;8.690;2023-03-01T03:09:04;30.83;;;14.60;;
4055;SDS011;2043;52.184;8.690;2023-03-01T03:11:31;32.33;;;13.70;;
4055;SDS011;2043;52.184;8.690;2023-03-01T03:13:58;26.67;;;13.20;;
4055;SDS011;2043;52.184;8.690;2023-03-01T03:16:25;31.80;;;14.13;;
4055;SDS011;2043;52.184;8.690;2023-03-01T03:18:52;39.37;;;14.40;;
4055;SDS011;2043;52.184;8.690;2023-03-01T03:21:20;31.97;;;14.50;;
4055;SDS011;2043;52.184;8.690;2023-03-01T03:23:47;33.27;;;14.57;;
4055;SDS011;2043;52.184;8.690;2023-03-01T03:26:14;28.37;;;15.00;;
4055;SDS011;2043;52.184;8.690;2023-03-01T03:28:41;32.17;;;14.00;;
4055;SDS011;2043;52.184;8.690;2023-03-01T03:31:08;28.20;;;13.83;;
4055;SDS011;2043;52.184;8.690;2023-03-01T03:33:35;31.40;;;13.83;;
4055;SDS011;2043;52.184;8.690;2023-03-01T03:36:03;42.93;;;13.73;;
4055;SDS011;2043;52.184;8.690;2023-03-01T03:38:30;31.50;;;13.43;;
4055;SDS011;2043;52.184;8.690;2023-03-01T03:43:32;32.27;;;14.50;;
4055;SDS011;2043;52.184;8.690;2023-03-01T03:46:00;28.93;;;13.40;;
4055;SDS011;2043;52.184;8.690;2023-03-01T03:48:35;32.13;;;14.17;;
4055;SDS011;2043;52.184;8.690;2023-03-01T03:51:03;28.27;;;13.30;;
4055;SDS011;2043;52.184;8.690;2023-03-01T03:53:32;29.87;;;13.97;;
4055;SDS011;2043;52.184;8.690;2023-03-01T03:56:00;33.17;;;14.90;;
4055;SDS011;2043;52.184;8.690;2023-03-01T03:58:27;33.00;;;14.40;;
4055;SDS011;2043;52.184;8.690;2023-03-01T04:00:55;29.27;;;14.43;;
4055;SDS011;2043;52.184;8.690;2023-03-01T04:03:23;34.03;;;14.50;;
4055;SDS011;2043;52.184;8.690;2023-03-01T04:05:51;34.77;;;14.20;;
4055;SDS011;2043;52.184;8.690;2023-03-01T04:08:19;29.07;;;14.70;;
4055;SDS011;2043;52.184;8.690;2023-03-01T04:10:51;32.33;;;14.50;;
4055;SDS011;2043;52.184;8.690;2023-03-01T04:13:22;33.10;;;14.70;;
4055;SDS011;2043;52.184;8.690;2023-03-01T04:15:51;35.97;;;15.37;;
4055;SDS011;2043;52.184;8.690;2023-03-01T04:18:20;31.83;;;14.87;;
4055;SDS011;2043;52.184;8.690;2023-03-01T04:20:48;41.20;;;16.07;;
4055;SDS011;2043;52.184;8.690;2023-03-01T04:23:17;39.53;;;15.93;;
4055;SDS011;2043;52.184;8.690;2023-03-01T04:28:22;33.80;;;15.63;;
4055;SDS011;2043;52.184;8.690;2023-03-01T04:30:51;45.13;;;15.53;;
4055;SDS011;2043;52.184;8.690;2023-03-01T04:33:23;31.87;;;14.80;;
4055;SDS011;2043;52.184;8.690;2023-03-01T04:35:50;31.13;;;14.00;;
4055;SDS011;2043;52.184;8.690;2023-03-01T04:38:18;30.10;;;13.70;;
4055;SDS011;2043;52.184;8.690;2023-03-01T04:40:45;31.60;;;14.83;;
4055;SDS011;2043;52.184;8.690;2023-03-01T04:43:12;36.30;;;13.93;;
4055;SDS011;2043;52.184;8.690;2023-03-01T04:45:43;37.30;;;14.57;;
4055;SDS011;2043;52.184;8.690;2023-03-01T04:48:11;36.27;;;13.90;;
4055;SDS011;2043;52.184;8.690;2023-03-01T04:50:38;33.10;;;14.30;;
4055;SDS011;2043;52.184;8.690;2023-03-01T04:53:05;42.30;;;14.20;;
4055;SDS011;2043;52.184;8.690;2023-03-01T04:55:33;30.33;;;14.13;;
4055;SDS011;2043;52.184;8.690;2023-03-01T04:58:00;64.87;;;17.13;;
4055;SDS011;2043;52.184;8.690;2023-03-01T05:00:27;32.37;;;14.67;;
4055;SDS011;2043;52.184;8.690;2023-03-01T05:02:57;35.20;;;15.23;;
4055;SDS011;2043;52.184;8.690;2023-03-01T05:05:27;38.30;;;14.00;;
4055;SDS011;2043;52.184;8.690;2023-03-01T05:11:00;35.13;;;15.37;;
4055;SDS011;2043;52.184;8.690;2023-03-01T05:13:27;36.60;;;14.50;;
4055;SDS011;2043;52.184;8.690;2023-03-01T05:15:55;29.27;;;13.43;;
4055;SDS011;2043;52.184;8.690;2023-03-01T05:18:28;38.70;;;14.27;;
4055;SDS011;2043;52.184;8.690;2023-03-01T05:21:01;37.70;;;17.27;;
4055;SDS011;2043;52.184;8.690;2023-03-01T05:23:31;33.40;;;15.23;;
4055;SDS011;2043;52.184;8.690;2023-03-01T05:25:59;36.90;;;15.53;;
4055;SDS011;2043;52.184;8.690;2023-03-01T05:28:26;29.20;;;14.13;;
4055;SDS011;2043;52.184;8.690;2023-03-01T05:30:54;32.10;;;16.00;;
4055;SDS011;2043;52.184;8.690;2023-03-01T05:33:22;28.83;;;14.00;;
4055;SDS011;2043;52.184;8.690;2023-03-01T05:35:49;40.60;;;15.10;;
4055;SDS011;2043;52.184;8.690;2023-03-01T05:38:18;29.83;;;13.93;;
4055;SDS011;2043;52.184;8.690;2023-03-01T05:40:47;27.43;;;13.30;;
4055;SDS011;2043;52.184;8.690;2023-03-01T05:43:15;35.40;;;14.37;;
4055;SDS011;2043;52.184;8.690;2023-03-01T05:45:43;32.43;;;15.13;;
4055;SDS011;2043;52.184;8.690;2023-03-01T05:48:10;35.60;;;14.70;;
4055;SDS011;2043;52.184;8.690;2023-03-01T05:50:38;29.53;;;13.63;;
4055;SDS011;2043;52.184;8.690;2023-03-01T05:53:09;33.67;;;14.47;;
4055;SDS011;2043;52.184;8.690;2023-03-01T05:55:41;36.73;;;15.07;;
4055;SDS011;2043;52.184;8.690;2023-03-01T05:58:11;29.87;;;13.63;;
4055;SDS011;2043;52.184;8.690;2023-03-01T06:00:43;33.63;;;15.17;;
4055;SDS011;2043;52.184;8.690;2023-03-01T06:03:11;28.37;;;14.43;;
4055;SDS011;2043;52.184;8.690;2023-03-01T06:05:40;31.50;;;15.13;;
4055;SDS011;2043;52.184;8.690;2023-03-01T06:08:07;34.33;;;13.70;;
4055;SDS011;2043;52.184;8.690;2023-03-01T06:10:34;33.97;;;14.67;;
4055;SDS011;2043;52.184;8.690;2023-03-01T06:13:01;32.27;;;15.17;;
4055;SDS011;2043;52.184;8.690;2023-03-01T06:15:28;31.90;;;14.63;;
4055;SDS011;2043;52.184;8.690;2023-03-01T06:17:55;42.77;;;15.33;;
4055;SDS011;2043;52.184;8.690;2023-03-01T06:20:26;37.40;;;15.30;;
4055;SDS011;2043;52.184;8.690;2023-03-01T06:22:54;36.07;;;15.97;;
4055;SDS011;2043;52.184;8.690;2023-03-01T06:25:21;36.53;;;15.13;;
4055;SDS011;2043;52.184;8.690;2023-03-01T06:27:49;30.13;;;13.77;;
4055;SDS011;2043;52.184;8.690;2023-03-01T06:30:18;40.70;;;15.67;;
4055;SDS011;2043;52.184;8.690;2023-03-01T06:32:46;31.87;;;15.77;;
4055;SDS011;2043;52.184;8.690;2023-03-01T06:35:15;41.10;;;15.93;;
4055;SDS011;2043;52.184;8.690;2023-03-01T06:37:45;40.57;;;15.23;;
4055;SDS011;2043;52.184;8.690;2023-03-01T06:40:13;46.33;;;16.57;;
4055;SDS011;2043;52.184;8.690;2023-03-01T06:42:42;46.27;;;16.23;;
4055;SDS011;2043;52.184;8.690;2023-03-01T06:45:10;42.93;;;16.97;;
4055;SDS011;2043;52.184;8.690;2023-03-01T06:47:37;41.33;;;17.80;;
4055;SDS011;2043;52.184;8.690;2023-03-01T06:50:04;41.30;;;16.17;;
4055;SDS011;2043;52.184;8.690;2023-03-01T06:52:32;35.77;;;14.40;;
4055;SDS011;2043;52.184;8.690;2023-03-01T06:54:59;30.30;;;14.80;;
4055;SDS011;2043;52.184;8.690;2023-03-01T06:57:27;39.33;;;15.53;;
4055;SDS011;2043;52.184;8.690;2023-03-01T06:59:53;37.23;;;16.00;;
4055;SDS011;2043;52.184;8.690;2023-03-01T07:02:20;40.83;;;17.90;;
4055;SDS011;2043;52.184;8.690;2023-03-01T07:04:51;41.50;;;16.80;;
4055;SDS011;2043;52.184;8.690;2023-03-01T07:07:18;60.50;;;20.80;;
4055;SDS011;2043;52.184;8.690;2023-03-01T07:09:45;80.80;;;26.87;;
4055;SDS011;2043;52.184;8.690;2023-03-01T07:12:12;75.20;;;26.20;;
4055;SDS011;2043;52.184;8.690;2023-03-01T07:14:39;50.43;;;22.10;;
4055;SDS011;2043;52.184;8.690;2023-03-01T07:17:06;52.27;;;20.33;;
4055;SDS011;2043;52.184;8.690;2023-03-01T07:19:33;49.83;;;19.20;;
4055;SDS011;2043;52.184;8.690;2023-03-01T07:21:59;47.10;;;17.17;;
4055;SDS011;2043;52.184;8.690;2023-03-01T07:24:26;34.07;;;16.33;;
4055;SDS011;2043;52.184;8.690;2023-03-01T07:26:53;40.27;;;16.20;;
4055;SDS011;2043;52.184;8.690;2023-03-01T07:29:20;42.70;;;17.73;;
4055;SDS011;2043;52.184;8.690;2023-03-01T07:31:46;48.90;;;16.73;;
4055;SDS011;2043;52.184;8.690;2023-03-01T07:34:13;34.10;;;16.07;;
4055;SDS011;2043;52.184;8.690;2023-03-01T07:36:40;34.97;;;16.73;;
4055;SDS011;2043;52.184;8.690;2023-03-01T07:39:11;59.60;;;26.20;;
4055;SDS011;2043;52.184;8.690;2023-03-01T07:41:38;107.07;;;42.83;;
4055;SDS011;2043;52.184;8.690;2023-03-01T07:44:05;66.70;;;28.30;;
4055;SDS011;2043;52.184;8.690;2023-03-01T07:46:32;65.07;;;28.53;;
4055;SDS011;2043;52.184;8.690;2023-03-01T07:48:59;69.20;;;26.80;;
4055;SDS011;2043;52.184;8.690;2023-03-01T07:51:26;77.67;;;31.33;;
4055;SDS011;2043;52.184;8.690;2023-03-01T07:53:52;63.57;;;24.17;;
4055;SDS011;2043;52.184;8.690;2023-03-01T07:56:19;77.33;;;32.17;;
4055;SDS011;2043;52.184;8.690;2023-03-01T07:58:48;75.83;;;27.07;;
4055;SDS011;2043;52.184;8.690;2023-03-01T08:01:17;48.83;;;20.23;;
4055;SDS011;2043;52.184;8.690;2023-03-01T08:03:45;31.73;;;17.20;;
4055;SDS011;2043;52.184;8.690;2023-03-01T08:06:13;48.57;;;22.97;;
4055;SDS011;2043;52.184;8.690;2023-03-01T08:08:41;46.77;;;21.50;;
4055;SDS011;2043;52.184;8.690;2023-03-01T08:11:10;40.30;;;19.37;;
4055;SDS011;2043;52.184;8.690;2023-03-01T08:13:38;37.50;;;18.10;;
4055;SDS011;2043;52.184;8.690;2023-03-01T08:16:06;42.63;;;20.10;;
4055;SDS011;2043;52.184;8.690;2023-03-01T08:18:36;34.20;;;16.87;;
4055;SDS011;2043;52.184;8.690;2023-03-01T08:21:06;38.73;;;18.57;;
4055;SDS011;2043;52.184;8.690;2023-03-01T08:23:35;35.17;;;18.57;;
4055;SDS011;2043;52.184;8.690;2023-03-01T08:26:13;29.47;;;16.50;;
4055;SDS011;2043;52.184;8.690;2023-03-01T08:28:41;37.67;;;18.37;;
4055;SDS011;2043;52.184;8.690;2023-03-01T08:31:16;41.77;;;22.13;;
4055;SDS011;2043;52.184;8.690;2023-03-01T08:33:56;36.67;;;19.60;;
4055;SDS011;2043;52.184;8.690;2023-03-01T08:36:29;46.00;;;16.93;;
4055;SDS011;2043;52.184;8.690;2023-03-01T08:38:59;32.23;;;19.00;;
4055;SDS011;2043;52.184;8.690;2023-03-01T08:41:26;31.07;;;15.60;;
4055;SDS011;2043;52.184;8.690;2023-03-01T08:43:53;31.90;;;15.80;;
4055;SDS011;2043;52.184;8.690;2023-03-01T08:46:28;24.50;;;15.13;;
4055;SDS011;2043;52.184;8.690;2023-03-01T08:48:57;28.77;;;16.53;;
4055;SDS011;2043;52.184;8.690;2023-03-01T08:51:24;28.03;;;15.27;;
4055;SDS011;2043;52.184;8.690;2023-03-01T08:53:51;31.70;;;15.57;;
4055;SDS011;2043;52.184;8.690;2023-03-01T08:56:18;34.37;;;16.70;;
4055;SDS011;2043;52.184;8.690;2023-03-01T08:58:46;26.27;;;14.97;;
4055;SDS011;2043;52.184;8.690;2023-03-01T09:01:14;48.30;;;17.17;;
4055;SDS011;2043;52.184;8.690;2023-03-01T09:03:43;37.30;;;16.40;;
4055;SDS011;2043;52.184;8.690;2023-03-01T09:06:11;34.40;;;16.80;;
4055;SDS011;2043;52.184;8.690;2023-03-01T09:08:38;21.97;;;14.40;;
4055;SDS011;2043;52.184;8.690;2023-03-01T09:11:07;29.80;;;14.97;;
4055;SDS011;2043;52.184;8.690;2023-03-01T09:13:36;26.60;;;15.37;;
4055;SDS011;2043;52.184;8.690;2023-03-01T09:16:03;24.20;;;14.60;;
4055;SDS011;2043;52.184;8.690;2023-03-01T09:18:32;19.63;;;12.70;;
4055;SDS011;2043;52.184;8.690;2023-03-01T09:21:00;20.17;;;12.10;;
4055;SDS011;2043;52.184;8.690;2023-03-01T09:23:36;27.33;;;13.60;;
4055;SDS011;2043;52.184;8.690;2023-03-01T09:26:06;22.00;;;13.20;;
4055;SDS011;2043;52.184;8.690;2023-03-01T09:28:38;28.77;;;13.90;;
4055;SDS011;2043;52.184;8.690;2023-03-01T09:31:06;29.33;;;13.47;;
4055;SDS011;2043;52.184;8.690;2023-03-01T09:33:32;21.77;;;11.87;;
4055;SDS011;2043;52.184;8.690;2023-03-01T09:36:03;18.40;;;11.50;;
4055;SDS011;2043;52.184;8.690;2023-03-01T09:38:31;20.57;;;11.57;;
4055;SDS011;2043;52.184;8.690;2023-03-01T09:40:59;18.63;;;11.37;;
4055;SDS011;2043;52.184;8.690;2023-03-01T09:43:46;18.43;;;11.20;;
4055;SDS011;2043;52.184;8.690;2023-03-01T09:46:22;18.00;;;11.60;;
4055;SDS011;2043;52.184;8.690;2023-03-01T09:51:31;21.73;;;11.30;;
4055;SDS011;2043;52.184;8.690;2023-03-01T09:54:03;19.53;;;11.00;;
4055;SDS011;2043;52.184;8.690;2023-03-01T09:56:37;22.33;;;10.90;;
4055;SDS011;2043;52.184;8.690;2023-03-01T09:59:48;14.30;;;9.60;;
4055;SDS011;2043;52.184;8.690;2023-03-01T10:05:24;14.80;;;9.30;;
4055;SDS011;2043;52.184;8.690;2023-03-01T10:13:05;16.50;;;8.33;;
4055;SDS011;2043;52.184;8.690;2023-03-01T10:15:47;15.60;;;9.57;;
4055;SDS011;2043;52.184;8.690;2023-03-01T10:18:25;14.53;;;8.47;;
4055;SDS011;2043;52.184;8.690;2023-03-01T10:21:01;15.10;;;8.13;;
4055;SDS011;2043;52.184;8.690;2023-03-01T10:23:32;18.67;;;7.93;;
4055;SDS011;2043;52.184;8.690;2023-03-01T10:31:50;19.23;;;8.50;;
4055;SDS011;2043;52.184;8.690;2023-03-01T10:34:18;16.60;;;8.20;;
4055;SDS011;2043;52.184;8.690;2023-03-01T10:36:55;14.57;;;8.90;;
4055;SDS011;2043;52.184;8.690;2023-03-01T10:39:24;17.00;;;9.10;;
4055;SDS011;2043;52.184;8.690;2023-03-01T10:41:56;13.50;;;8.10;;
4055;SDS011;2043;52.184;8.690;2023-03-01T10:44:38;13.40;;;8.10;;
4055;SDS011;2043;52.184;8.690;2023-03-01T10:47:08;17.50;;;8.93;;
4055;SDS011;2043;52.184;8.690;2023-03-01T10:49:52;20.30;;;8.87;;
4055;SDS011;2043;52.184;8.690;2023-03-01T10:52:20;16.83;;;9.37;;
4055;SDS011;2043;52.184;8.690;2023-03-01T10:54:56;16.90;;;9.23;;
4055;SDS011;2043;52.184;8.690;2023-03-01T10:57:35;15.37;;;8.67;;
4055;SDS011;2043;52.184;8.690;2023-03-01T11:03:02;15.87;;;9.40;;
4055;SDS011;2043;52.184;8.690;2023-03-01T11:05:37;18.30;;;8.33;;
4055;SDS011;2043;52.184;8.690;2023-03-01T11:08:34;16.27;;;8.80;;
4055;SDS011;2043;52.184;8.690;2023-03-01T11:13:35;14.43;;;8.57;;
4055;SDS011;2043;52.184;8.690;2023-03-01T11:16:10;16.10;;;9.17;;
4055;SDS011;2043;52.184;8.690;2023-03-01T11:18:38;15.83;;;9.07;;
4055;SDS011;2043;52.184;8.690;2023-03-01T11:21:14;17.93;;;9.30;;
4055;SDS011;2043;52.184;8.690;2023-03-01T11:23:42;16.73;;;9.10;;
4055;SDS011;2043;52.184;8.690;2023-03-01T11:26:12;14.90;;;8.73;;
4055;SDS011;2043;52.184;8.690;2023-03-01T11:28:41;17.47;;;9.60;;
4055;SDS011;2043;52.184;8.690;2023-03-01T11:31:10;16.60;;;8.70;;
4055;SDS011;2043;52.184;8.690;2023-03-01T11:33:47;18.33;;;9.23;;
4055;SDS011;2043;52.184;8.690;2023-03-01T11:36:28;22.70;;;8.50;;
4055;SDS011;2043;52.184;8.690;2023-03-01T11:41:38;18.00;;;9.27;;
4055;SDS011;2043;52.184;8.690;2023-03-01T11:44:17;17.53;;;9.27;;
4055;SDS011;2043;52.184;8.690;2023-03-01T11:55:18;15.97;;;8.70;;
4055;SDS011;2043;52.184;8.690;2023-03-01T12:22:31;14.50;;;8.37;;
4055;SDS011;2043;52.184;8.690;2023-03-01T12:27:56;13.80;;;7.40;;
4055;SDS011;2043;52.184;8.690;2023-03-01T12:41:57;21.40;;;9.47;;
4055;SDS011;2043;52.184;8.690;2023-03-01T12:50:54;17.60;;;9.50;;
4055;SDS011;2043;52.184;8.690;2023-03-01T12:53:26;17.60;;;8.20;;
4055;SDS011;2043;52.184;8.690;2023-03-01T12:56:00;17.50;;;8.57;;
4055;SDS011;2043;52.184;8.690;2023-03-01T12:58:35;17.13;;;8.10;;
4055;SDS011;2043;52.184;8.690;2023-03-01T13:18:31;16.40;;;8.00;;
4055;SDS011;2043;52.184;8.690;2023-03-01T13:21:00;14.43;;;8.00;;
4055;SDS011;2043;52.184;8.690;2023-03-01T13:23:35;14.60;;;8.30;;
4055;SDS011;2043;52.184;8.690;2023-03-01T13:33:46;19.03;;;8.53;;
4055;SDS011;2043;52.184;8.690;2023-03-01T13:49:56;13.87;;;8.17;;
4055;SDS011;2043;52.184;8.690;2023-03-01T13:52:43;17.53;;;8.77;;
4055;SDS011;2043;52.184;8.690;2023-03-01T13:55:23;21.97;;;9.53;;
4055;SDS011;2043;52.184;8.690;2023-03-01T14:00:47;16.97;;;8.20;;
4055;SDS011;2043;52.184;8.690;2023-03-01T14:03:21;19.53;;;9.13;;
4055;SDS011;2043;52.184;8.690;2023-03-01T14:08:38;13.50;;;7.83;;
4055;SDS011;2043;52.184;8.690;2023-03-01T14:11:13;17.77;;;8.53;;
4055;SDS011;2043;52.184;8.690;2023-03-01T14:19:34;13.40;;;7.37;;
4055;SDS011;2043;52.184;8.690;2023-03-01T14:22:07;13.07;;;6.80;;
4055;SDS011;2043;52.184;8.690;2023-03-01T14:25:00;12.57;;;7.07;;
4055;SDS011;2043;52.184;8.690;2023-03-01T14:27:37;13.10;;;6.30;;
4055;SDS011;2043;52.184;8.690;2023-03-01T14:30:12;10.53;;;6.40;;
4055;SDS011;2043;52.184;8.690;2023-03-01T14:32:54;9.40;;;5.67;;
4055;SDS011;2043;52.184;8.690;2023-03-01T14:35:24;11.03;;;5.30;;
4055;SDS011;2043;52.184;8.690;2023-03-01T14:37:52;13.40;;;6.83;;
4055;SDS011;2043;52.184;8.690;2023-03-01T14:40:37;8.83;;;5.40;;
4055;SDS011;2043;52.184;8.690;2023-03-01T14:43:11;11.53;;;6.00;;
4055;SDS011;2043;52.184;8.690;2023-03-01T14:45:46;10.70;;;5.80;;
4055;SDS011;2043;52.184;8.690;2023-03-01T14:48:15;9.43;;;5.23;;
4055;SDS011;2043;52.184;8.690;2023-03-01T14:50:42;10.40;;;6.07;;
4055;SDS011;2043;52.184;8.690;2023-03-01T14:53:17;10.03;;;5.77;;
4055;SDS011;2043;52.184;8.690;2023-03-01T14:55:52;9.87;;;5.80;;
4055;SDS011;2043;52.184;8.690;2023-03-01T14:58:28;8.93;;;5.67;;
4055;SDS011;2043;52.184;8.690;2023-03-01T15:00:58;11.90;;;6.00;;
4055;SDS011;2043;52.184;8.690;2023-03-01T15:06:20;9.27;;;5.70;;
4055;SDS011;2043;52.184;8.690;2023-03-01T15:08:52;9.30;;;5.30;;
4055;SDS011;2043;52.184;8.690;2023-03-01T15:11:27;9.70;;;5.50;;
4055;SDS011;2043;52.184;8.690;2023-03-01T15:13:59;10.90;;;4.90;;
4055;SDS011;2043;52.184;8.690;2023-03-01T15:16:27;18.43;;;6.00;;
4055;SDS011;2043;52.184;8.690;2023-03-01T15:19:01;14.90;;;5.97;;
4055;SDS011;2043;52.184;8.690;2023-03-01T15:21:32;10.03;;;4.40;;
4055;SDS011;2043;52.184;8.690;2023-03-01T15:24:04;12.30;;;5.20;;
4055;SDS011;2043;52.184;8.690;2023-03-01T15:26:52;10.60;;;4.80;;
4055;SDS011;2043;52.184;8.690;2023-03-01T15:29:27;9.13;;;5.00;;
4055;SDS011;2043;52.184;8.690;2023-03-01T15:32:06;10.63;;;4.90;;
4055;SDS011;2043;52.184;8.690;2023-03-01T15:34:51;8.10;;;4.57;;
4055;SDS011;2043;52.184;8.690;2023-03-01T15:40:21;11.37;;;5.60;;
4055;SDS011;2043;52.184;8.690;2023-03-01T15:43:01;12.70;;;5.47;;
4055;SDS011;2043;52.184;8.690;2023-03-01T15:45:30;8.50;;;4.67;;
4055;SDS011;2043;52.184;8.690;2023-03-01T15:48:04;11.33;;;4.90;;
4055;SDS011;2043;52.184;8.690;2023-03-01T15:50:41;11.33;;;4.80;;
4055;SDS011;2043;52.184;8.690;2023-03-01T15:53:10;23.13;;;8.87;;
4055;SDS011;2043;52.184;8.690;2023-03-01T15:55:40;9.23;;;5.20;;
4055;SDS011;2043;52.184;8.690;2023-03-01T15:58:12;11.80;;;5.17;;
4055;SDS011;2043;52.184;8.690;2023-03-01T16:00:42;10.90;;;5.20;;
4055;SDS011;2043;52.184;8.690;2023-03-01T16:03:25;8.03;;;4.70;;
4055;SDS011;2043;52.184;8.690;2023-03-01T16:05:52;16.17;;;5.10;;
4055;SDS011;2043;52.184;8.690;2023-03-01T16:08:19;9.80;;;5.27;;
4055;SDS011;2043;52.184;8.690;2023-03-01T16:10:46;10.17;;;5.20;;
4055;SDS011;2043;52.184;8.690;2023-03-01T16:13:16;8.73;;;5.00;;
4055;SDS011;2043;52.184;8.690;2023-03-01T16:15:43;9.77;;;5.17;;
4055;SDS011;2043;52.184;8.690;2023-03-01T16:18:11;9.10;;;5.10;;
4055;SDS011;2043;52.184;8.690;2023-03-01T16:20:38;10.13;;;5.30;;
4055;SDS011;2043;52.184;8.690;2023-03-01T16:23:06;8.30;;;4.60;;
4055;SDS011;2043;52.184;8.690;2023-03-01T16:25:34;13.33;;;5.03;;
4055;SDS011;2043;52.184;8.690;2023-03-01T16:28:02;13.90;;;5.37;;
4055;SDS011;2043;52.184;8.690;2023-03-01T16:30:35;10.27;;;5.27;;
4055;SDS011;2043;52.184;8.690;2023-03-01T16:33:06;9.67;;;5.60;;
4055;SDS011;2043;52.184;8.690;2023-03-01T16:36:00;12.90;;;4.77;;
4055;SDS011;2043;52.184;8.690;2023-03-01T16:38:37;11.00;;;5.27;;
4055;SDS011;2043;52.184;8.690;2023-03-01T16:43:43;8.93;;;5.27;;
4055;SDS011;2043;52.184;8.690;2023-03-01T16:46:14;14.97;;;5.67;;
4055;SDS011;2043;52.184;8.690;2023-03-01T16:48:43;11.93;;;5.80;;
4055;SDS011;2043;52.184;8.690;2023-03-01T16:51:10;11.17;;;5.60;;
4055;SDS011;2043;52.184;8.690;2023-03-01T16:53:37;10.93;;;6.03;;
4055;SDS011;2043;52.184;8.690;2023-03-01T16:56:05;14.47;;;5.07;;
4055;SDS011;2043;52.184;8.690;2023-03-01T16:58:34;10.30;;;5.70;;
4055;SDS011;2043;52.184;8.690;2023-03-01T17:01:15;11.77;;;6.10;;
4055;SDS011;2043;52.184;8.690;2023-03-01T17:03:44;16.00;;;5.90;;
4055;SDS011;2043;52.184;8.690;2023-03-01T17:06:14;11.90;;;6.43;;
4055;SDS011;2043;52.184;8.690;2023-03-01T17:08:42;14.77;;;7.60;;
4055;SDS011;2043;52.184;8.690;2023-03-01T17:11:10;15.17;;;7.93;;
4055;SDS011;2043;52.184;8.690;2023-03-01T17:13:39;16.73;;;7.73;;
4055;SDS011;2043;52.184;8.690;2023-03-01T17:16:07;16.57;;;8.30;;
4055;SDS011;2043;52.184;8.690;2023-03-01T17:18:36;16.60;;;8.60;;
4055;SDS011;2043;52.184;8.690;2023-03-01T17:21:04;22.37;;;8.70;;
4055;SDS011;2043;52.184;8.690;2023-03-01T17:23:33;17.63;;;7.80;;
4055;SDS011;2043;52.184;8.690;2023-03-01T17:26:00;14.97;;;7.47;;
4055;SDS011;2043;52.184;8.690;2023-03-01T17:28:28;17.77;;;7.53;;
4055;SDS011;2043;52.184;8.690;2023-03-01T17:31:00;19.20;;;8.27;;
4055;SDS011;2043;52.184;8.690;2023-03-01T17:33:29;19.23;;;7.83;;
4055;SDS011;2043;52.184;8.690;2023-03-01T17:35:56;21.60;;;8.50;;
4055;SDS011;2043;52.184;8.690;2023-03-01T17:38:25;16.40;;;8.57;;
4055;SDS011;2043;52.184;8.690;2023-03-01T17:40:52;14.40;;;7.93;;
4055;SDS011;2043;52.184;8.690;2023-03-01T17:43:18;13.93;;;6.93;;
4055;SDS011;2043;52.184;8.690;2023-03-01T17:45:45;10.73;;;6.17;;
4055;SDS011;2043;52.184;8.690;2023-03-01T17:48:14;13.33;;;6.73;;
4055;SDS011;2043;52.184;8.690;2023-03-01T17:50:42;12.67;;;6.37;;
4055;SDS011;2043;52.184;8.690;2023-03-01T17:53:09;20.80;;;7.90;;